createdAt,value
2022-08-10T00:02:15.996Z,102406.47
2022-08-10T00:04:45.252Z,102405.19
2022-08-10T00:07:15.857Z,102397.53
2022-08-10T00:09:50.117Z,102390.09
2022-08-10T00:12:21.142Z,102392.66
2022-08-10T00:14:50.675Z,102408.53
2022-08-10T00:17:19.962Z,102393.69
2022-08-10T00:20:03.830Z,102389.59
2022-08-10T00:22:35.792Z,102398.75
2022-08-10T00:25:18.810Z,102364.13
2022-08-10T00:28:02.700Z,102400.13
2022-08-10T00:30:33.259Z,102391.31
2022-08-10T00:33:02.531Z,102387.94
2022-08-10T00:35:31.799Z,102375.44
2022-08-10T00:38:02.573Z,102386.56
2022-08-10T00:40:37.066Z,102389.69
2022-08-10T00:43:07.517Z,102372.34
2022-08-10T00:45:36.926Z,102334.63
2022-08-10T00:48:06.702Z,102357.13
2022-08-10T00:50:36.223Z,102394.66
2022-08-10T00:53:08.180Z,102390.78
2022-08-10T00:57:10.067Z,102385.16
2022-08-10T00:58:29.028Z,102389.72
2022-08-10T01:00:58.334Z,102376.06
2022-08-10T01:04:39.766Z,102376.56
2022-08-10T01:06:40.146Z,102377.88
2022-08-10T01:09:21.208Z,102379.81
2022-08-10T01:12:37.550Z,102375.59
2022-08-10T01:15:09.438Z,102387.69
2022-08-10T01:17:53.818Z,102387.69
2022-08-10T01:20:35.146Z,102370.56
2022-08-10T01:23:46.366Z,102375.75
2022-08-10T01:26:44.274Z,102370.69
2022-08-10T01:29:50.907Z,102373.94
2022-08-10T01:32:31.574Z,102369.41
2022-08-10T01:35:13.219Z,102349.97
2022-08-10T01:37:52.616Z,102359.94
2022-08-10T01:40:28.172Z,102367.78
2022-08-10T01:43:08.017Z,102322.50
2022-08-10T01:45:46.732Z,102374.28
2022-08-10T01:48:29.085Z,102369.59
2022-08-10T01:51:10.464Z,102375.00
2022-08-10T01:53:47.242Z,102373.22
2022-08-10T01:56:18.407Z,102364.41
2022-08-10T01:58:53.936Z,102369.28
2022-08-10T02:01:29.710Z,102353.03
2022-08-10T02:04:07.083Z,102370.91
2022-08-10T02:06:41.659Z,102340.66
2022-08-10T02:09:16.746Z,102374.25
2022-08-10T02:12:05.646Z,102374.41
2022-08-10T02:14:38.551Z,102379.78
2022-08-10T02:18:00.389Z,102368.41
2022-08-10T02:20:11.509Z,102363.22
2022-08-10T02:22:44.668Z,102385.06
2022-08-10T02:25:41.610Z,102361.09
2022-08-10T02:28:07.667Z,102371.06
2022-08-10T02:30:38.091Z,102386.72
2022-08-10T02:33:10.086Z,102369.91
2022-08-10T02:35:54.673Z,102374.31
2022-08-10T02:38:58.654Z,102373.84
2022-08-10T02:45:16.176Z,102361.44
2022-08-10T02:45:18.781Z,102360.63
2022-08-10T02:47:29.532Z,102360.78
2022-08-10T02:50:28.566Z,102342.53
2022-08-10T02:53:05.959Z,102360.44
2022-08-10T02:55:43.982Z,102366.66
2022-08-10T02:58:18.588Z,102365.84
2022-08-10T03:00:55.252Z,102369.78
2022-08-10T03:03:27.938Z,102366.19
2022-08-10T03:06:01.740Z,102366.69
2022-08-10T03:08:44.103Z,102365.38
2022-08-10T03:12:35.315Z,102380.22
2022-08-10T03:14:12.068Z,102369.28
2022-08-10T03:16:42.612Z,102371.75
2022-08-10T03:20:34.223Z,102360.66
2022-08-10T03:22:06.310Z,102378.13
2022-08-10T03:24:36.368Z,102370.63
2022-08-10T03:27:06.811Z,102358.88
2022-08-10T03:30:31.652Z,102373.41
2022-08-10T03:32:27.003Z,102366.88
2022-08-10T03:34:57.422Z,102374.72
2022-08-10T03:37:28.758Z,102357.41
2022-08-10T03:39:58.350Z,102363.78
2022-08-10T03:42:29.773Z,102364.44
2022-08-10T03:45:03.407Z,102375.53
2022-08-10T03:47:35.254Z,102373.91
2022-08-10T03:50:25.968Z,102353.03
2022-08-10T03:52:57.042Z,102365.09
2022-08-10T03:56:29.665Z,102363.31
2022-08-10T03:58:16.574Z,102352.53
2022-08-10T04:00:46.280Z,102366.09
2022-08-10T04:03:15.956Z,102363.97
2022-08-10T04:05:45.829Z,102361.50
2022-08-10T04:08:16.645Z,102368.84
2022-08-10T04:10:45.891Z,102358.09
2022-08-10T04:13:15.031Z,102351.91
2022-08-10T04:15:44.345Z,102363.13
2022-08-10T04:18:13.624Z,102348.00
2022-08-10T04:20:49.862Z,102358.25
2022-08-10T04:23:25.076Z,102353.69
2022-08-10T04:25:55.030Z,102355.78
2022-08-10T04:28:25.410Z,102357.13
2022-08-10T04:30:56.910Z,102366.25
2022-08-10T04:33:27.640Z,102361.03
2022-08-10T04:35:58.319Z,102352.88
2022-08-10T04:38:31.130Z,102361.16
2022-08-10T04:41:00.804Z,102346.66
2022-08-10T04:43:29.938Z,102357.41
2022-08-10T04:45:59.182Z,102360.69
2022-08-10T04:48:40.982Z,102342.72
2022-08-10T04:51:17.679Z,102351.69
2022-08-10T04:54:03.846Z,102349.59
2022-08-10T04:56:38.566Z,102363.09
2022-08-10T04:59:09.823Z,102358.53
2022-08-10T05:02:30.001Z,102360.78
2022-08-10T05:04:33.765Z,102356.38
2022-08-10T05:07:10.520Z,102356.50
2022-08-10T05:10:00.478Z,102344.94
2022-08-10T05:12:31.497Z,102358.44
2022-08-10T05:15:00.605Z,102351.28
2022-08-10T05:17:29.746Z,102354.38
2022-08-10T05:20:04.560Z,102350.59
2022-08-10T05:22:37.620Z,102337.75
2022-08-10T05:25:14.851Z,102326.31
2022-08-10T05:27:45.404Z,102343.44
2022-08-10T05:30:18.736Z,102341.78
2022-08-10T05:32:57.138Z,102347.81
2022-08-10T05:35:55.453Z,102346.31
2022-08-10T05:38:24.411Z,102349.13
2022-08-10T05:40:57.135Z,102354.66
2022-08-10T05:43:26.797Z,102355.63
2022-08-10T05:46:18.286Z,102354.00
2022-08-10T05:48:57.176Z,102360.38
2022-08-10T05:51:36.150Z,102361.00
2022-08-10T05:54:15.041Z,102355.31
2022-08-10T05:56:56.844Z,102354.03
2022-08-10T06:00:33.688Z,102342.97
2022-08-10T06:02:41.622Z,102344.91
2022-08-10T06:05:13.468Z,102342.31
2022-08-10T06:07:47.926Z,102357.78
2022-08-10T06:10:19.667Z,102355.84
2022-08-10T06:13:26.929Z,102360.09
2022-08-10T06:16:04.800Z,102347.88
2022-08-10T06:18:34.570Z,102353.25
2022-08-10T06:21:04.993Z,102357.34
2022-08-10T06:23:35.506Z,102355.22
2022-08-10T06:26:08.930Z,102353.13
2022-08-10T06:28:56.048Z,102372.22
2022-08-10T06:31:48.746Z,102362.44
2022-08-10T06:34:25.879Z,102358.06
2022-08-10T06:36:58.827Z,102367.84
2022-08-10T06:39:36.504Z,102372.72
2022-08-10T06:42:18.517Z,102367.19
2022-08-10T06:44:58.005Z,102341.59
2022-08-10T06:47:35.841Z,102372.94
2022-08-10T06:50:13.663Z,102372.59
2022-08-10T06:52:45.100Z,102378.94
2022-08-10T06:55:18.795Z,102371.31
2022-08-10T06:57:59.779Z,102370.16
2022-08-10T07:00:34.572Z,102365.41
2022-08-10T07:03:13.459Z,102366.56
2022-08-10T07:05:51.384Z,102361.34
2022-08-10T07:08:24.322Z,102356.25
2022-08-10T07:10:54.588Z,102357.91
2022-08-10T07:14:14.036Z,102356.25
2022-08-10T07:16:17.810Z,102345.00
2022-08-10T07:18:50.231Z,102344.50
2022-08-10T07:21:20.289Z,102347.25
2022-08-10T07:23:56.830Z,102327.81
2022-08-10T07:26:32.210Z,102344.06
2022-08-10T07:29:03.409Z,102318.91
2022-08-10T07:31:56.194Z,102328.94
2022-08-10T07:34:29.289Z,102332.84
2022-08-10T07:37:06.059Z,102331.66
2022-08-10T07:40:02.130Z,102353.69
2022-08-10T07:42:31.279Z,102352.53
2022-08-10T07:45:03.200Z,102345.75
2022-08-10T07:47:53.558Z,102357.44
2022-08-10T07:50:26.847Z,102361.69
2022-08-10T07:53:02.749Z,102351.69
2022-08-10T07:56:05.507Z,102360.69
2022-08-10T07:58:31.300Z,102363.38
2022-08-10T08:01:02.696Z,102347.47
2022-08-10T08:03:35.210Z,102362.44
2022-08-10T08:06:11.593Z,102348.81
2022-08-10T08:08:45.747Z,102348.38
2022-08-10T08:11:25.574Z,102354.25
2022-08-10T08:13:57.013Z,102358.25
2022-08-10T08:16:26.938Z,102353.25
2022-08-10T08:19:24.040Z,102352.53
2022-08-10T08:24:10.246Z,102350.28
2022-08-10T08:24:41.058Z,102358.00
2022-08-10T08:27:12.347Z,102355.03
2022-08-10T08:29:44.329Z,102359.22
2022-08-10T08:32:17.455Z,102356.97
2022-08-10T08:34:49.564Z,102351.47
2022-08-10T08:38:31.551Z,102353.66
2022-08-10T08:40:15.680Z,102332.56
2022-08-10T08:43:26.294Z,102339.88
2022-08-10T08:46:28.881Z,102346.13
2022-08-10T08:50:08.318Z,102341.13
2022-08-10T08:52:29.289Z,102347.31
2022-08-10T08:56:03.480Z,102335.75
2022-08-10T08:58:21.705Z,102332.63
2022-08-10T09:01:02.821Z,102340.41
2022-08-10T09:04:19.841Z,102345.28
2022-08-10T09:08:00.592Z,102315.94
2022-08-10T09:10:22.318Z,102321.03
2022-08-10T09:12:58.730Z,102321.13
2022-08-10T09:15:41.699Z,102317.94
2022-08-10T09:18:21.662Z,102320.75
2022-08-10T09:21:00.221Z,102319.94
2022-08-10T09:24:01.469Z,102321.16
2022-08-10T09:26:43.955Z,102317.50
2022-08-10T09:29:18.699Z,102309.75
2022-08-10T09:33:06.214Z,102324.53
2022-08-10T09:36:19.323Z,102315.00
2022-08-10T09:38:04.945Z,102314.31
2022-08-10T09:41:01.101Z,102315.19
2022-08-10T09:43:56.204Z,102312.56
2022-08-10T09:46:48.713Z,102308.53
2022-08-10T09:49:53.003Z,102307.16
2022-08-10T09:52:33.417Z,102300.28
2022-08-10T09:55:14.558Z,102299.47
2022-08-10T09:57:58.714Z,102298.50
2022-08-10T10:00:41.764Z,102300.16
2022-08-10T10:03:25.804Z,102307.25
2022-08-10T10:06:06.542Z,102307.97
2022-08-10T10:08:58.320Z,102294.53
2022-08-10T10:12:05.130Z,102301.38
2022-08-10T10:15:24.796Z,102299.72
2022-08-10T10:18:23.350Z,102293.28
2022-08-10T10:21:04.899Z,102292.94
2022-08-10T10:24:15.840Z,102289.59
2022-08-10T10:26:59.400Z,102288.03
2022-08-10T10:29:56.941Z,102279.53
2022-08-10T10:32:42.817Z,102292.00
2022-08-10T10:35:24.625Z,102281.06
2022-08-10T10:38:02.014Z,102287.63
2022-08-10T10:40:46.506Z,102278.88
2022-08-10T10:43:43.634Z,102265.22
2022-08-10T10:46:32.065Z,102259.56
2022-08-10T10:49:20.057Z,102254.53
2022-08-10T10:52:04.049Z,102255.97
2022-08-10T10:54:48.219Z,102257.25
2022-08-10T10:58:00.378Z,102249.97
2022-08-10T11:00:22.205Z,102250.34
2022-08-10T11:03:09.640Z,102253.19
2022-08-10T11:05:51.164Z,102247.31
2022-08-10T11:08:28.734Z,102249.19
2022-08-10T11:11:05.375Z,102244.00
2022-08-10T11:14:25.726Z,102239.44
2022-08-10T11:16:57.272Z,102232.25
2022-08-10T11:20:02.851Z,102233.47
2022-08-10T11:22:37.900Z,102217.72
2022-08-10T11:25:21.128Z,102223.72
2022-08-10T11:28:01.995Z,102217.81
2022-08-10T11:30:42.409Z,102212.94
2022-08-10T11:33:32.521Z,102207.50
2022-08-10T11:36:17.845Z,102216.66
2022-08-10T11:39:13.937Z,102209.75
2022-08-10T11:42:09.303Z,102201.81
2022-08-10T11:44:55.535Z,102203.53
2022-08-10T11:47:42.890Z,102197.69
2022-08-10T11:50:23.187Z,102195.84
2022-08-10T11:53:06.435Z,102191.66
2022-08-10T11:55:37.257Z,102197.22
2022-08-10T11:58:27.419Z,102198.38
2022-08-10T12:01:02.339Z,102195.94
2022-08-10T12:03:35.242Z,102188.47
2022-08-10T12:06:08.679Z,102203.19
2022-08-10T12:10:07.520Z,102202.16
2022-08-10T12:11:30.724Z,102216.09
2022-08-10T12:14:21.284Z,102212.78
2022-08-10T12:16:56.469Z,102199.63
2022-08-10T12:19:59.520Z,102198.50
2022-08-10T12:22:32.582Z,102196.72
2022-08-10T12:25:07.072Z,102198.38
2022-08-10T12:27:41.980Z,102188.69
2022-08-10T12:30:18.537Z,102186.75
2022-08-10T12:32:57.782Z,102188.00
2022-08-10T12:35:38.425Z,102180.81
2022-08-10T12:38:16.224Z,102176.28
2022-08-10T12:40:49.833Z,102176.44
2022-08-10T12:44:05.051Z,102170.16
2022-08-10T12:46:27.399Z,102171.84
2022-08-10T12:49:08.212Z,102172.03
2022-08-10T12:51:49.481Z,102170.56
2022-08-10T12:54:31.833Z,102169.00
2022-08-10T12:57:06.834Z,102173.59
2022-08-10T12:59:43.253Z,102155.91
2022-08-10T13:02:24.465Z,102164.91
2022-08-10T13:04:58.333Z,102157.13
2022-08-10T13:08:24.747Z,102168.44
2022-08-10T13:10:24.326Z,102153.66
2022-08-10T13:12:58.115Z,102159.28
2022-08-10T13:15:50.665Z,102159.78
2022-08-10T13:18:30.563Z,102143.75
2022-08-10T13:21:19.995Z,102139.31
2022-08-10T13:24:03.382Z,102140.91
2022-08-10T13:27:24.738Z,102140.53
2022-08-10T13:29:38.768Z,102136.22
2022-08-10T13:32:12.485Z,102138.03
2022-08-10T13:34:47.439Z,102127.81
2022-08-10T13:37:20.249Z,102133.28
2022-08-10T13:39:59.393Z,102125.88
2022-08-10T13:42:34.993Z,102115.84
2022-08-10T13:45:14.715Z,102119.81
2022-08-10T13:47:48.808Z,102114.97
2022-08-10T13:50:35.681Z,102105.63
2022-08-10T13:53:14.720Z,102115.78
2022-08-10T13:55:55.437Z,102114.19
2022-08-10T13:58:30.129Z,102107.00
2022-08-10T14:01:01.740Z,102111.22
2022-08-10T14:03:37.773Z,102108.31
2022-08-10T14:06:13.575Z,102111.69
2022-08-10T14:08:50.299Z,102106.97
2022-08-10T14:11:23.173Z,102097.84
2022-08-10T14:13:56.817Z,102106.34
2022-08-10T14:16:26.656Z,102103.75
2022-08-10T14:19:01.088Z,102099.44
2022-08-10T14:21:33.607Z,102105.84
2022-08-10T14:24:06.058Z,102108.78
2022-08-10T14:26:35.523Z,102100.41
2022-08-10T14:29:09.567Z,102098.28
2022-08-10T14:32:00.611Z,102097.06
2022-08-10T14:36:16.190Z,102099.47
2022-08-10T14:37:37.900Z,102101.72
2022-08-10T14:40:12.871Z,102096.56
2022-08-10T14:42:50.422Z,102096.69
2022-08-10T14:45:27.747Z,102095.03
2022-08-10T14:48:07.289Z,102089.81
2022-08-10T14:50:38.010Z,102088.63
2022-08-10T14:53:29.553Z,102079.94
2022-08-10T14:56:05.948Z,102074.44
2022-08-10T14:58:38.925Z,102083.34
2022-08-10T15:02:00.667Z,102079.13
2022-08-10T15:04:24.228Z,102084.00
2022-08-10T15:06:56.709Z,102080.59
2022-08-10T15:10:00.314Z,102070.13
2022-08-10T15:12:27.677Z,102068.19
2022-08-10T15:15:01.888Z,102066.59
2022-08-10T15:17:35.128Z,102066.38
2022-08-10T15:20:14.914Z,102068.28
2022-08-10T15:22:50.611Z,102062.38
2022-08-10T15:25:26.381Z,102054.84
2022-08-10T15:28:05.457Z,102063.41
2022-08-10T15:30:43.888Z,102062.25
2022-08-10T15:34:01.891Z,102051.56
2022-08-10T15:36:43.712Z,102051.66
2022-08-10T15:40:25.443Z,102045.84
2022-08-10T15:42:22.898Z,102044.34
2022-08-10T15:44:56.643Z,102042.97
2022-08-10T15:47:45.438Z,102055.09
2022-08-10T15:50:22.691Z,102051.28
2022-08-10T15:53:02.831Z,102040.50
2022-08-10T15:55:44.248Z,102041.47
2022-08-10T15:58:39.739Z,102031.38
2022-08-10T16:02:04.061Z,102027.22
2022-08-10T16:04:09.042Z,102034.06
2022-08-10T16:06:45.239Z,102038.69
2022-08-10T16:10:22.803Z,102029.00
2022-08-10T16:12:18.528Z,102029.91
2022-08-10T16:15:08.196Z,102030.09
2022-08-10T16:17:55.304Z,102019.81
2022-08-10T16:20:33.462Z,102028.16
2022-08-10T16:23:27.196Z,102021.38
2022-08-10T16:26:04.663Z,102022.59
2022-08-10T16:28:52.326Z,102011.28
2022-08-10T16:31:26.795Z,102010.97
2022-08-10T16:34:00.368Z,102023.19
2022-08-10T16:36:39.272Z,102006.84
2022-08-10T16:39:15.745Z,102021.88
2022-08-10T16:42:09.173Z,102003.19
2022-08-10T16:44:42.792Z,101997.72
2022-08-10T16:47:14.279Z,102006.72
2022-08-10T16:49:45.554Z,102005.75
2022-08-10T16:52:17.212Z,102009.13
2022-08-10T16:54:51.785Z,102004.03
2022-08-10T16:57:27.352Z,102004.13
2022-08-10T16:59:57.909Z,102002.97
2022-08-10T17:02:30.844Z,102005.50
2022-08-10T17:05:01.856Z,102001.25
2022-08-10T17:07:32.927Z,101992.13
2022-08-10T17:10:08.114Z,102003.84
2022-08-10T17:12:40.629Z,101995.09
2022-08-10T17:15:11.910Z,102010.84
2022-08-10T17:17:51.833Z,101998.72
2022-08-10T17:20:30.979Z,101996.00
2022-08-10T17:23:07.044Z,102000.13
2022-08-10T17:25:46.399Z,101996.91
2022-08-10T17:28:35.104Z,101997.72
2022-08-10T17:31:24.087Z,101992.88
2022-08-10T17:34:11.261Z,101984.09
2022-08-10T17:36:45.307Z,101987.34
2022-08-10T17:39:16.191Z,101986.56
2022-08-10T17:41:52.354Z,101980.50
2022-08-10T17:44:23.639Z,101980.59
2022-08-10T17:46:53.745Z,101998.28
2022-08-10T17:49:26.454Z,101968.56
2022-08-10T17:51:57.665Z,101985.88
2022-08-10T17:54:32.620Z,101980.31
2022-08-10T17:57:08.079Z,101984.38
2022-08-10T17:59:39.269Z,101988.00
2022-08-10T18:02:11.970Z,101983.63
2022-08-10T18:04:51.371Z,101986.84
2022-08-10T18:07:29.334Z,101994.94
2022-08-10T18:10:00.005Z,102002.97
2022-08-10T18:12:38.671Z,101999.34
2022-08-10T18:15:14.224Z,101990.09
2022-08-10T18:17:49.554Z,101986.84
2022-08-10T18:20:28.205Z,101980.47
2022-08-10T18:22:58.635Z,101998.59
2022-08-10T18:25:33.992Z,101981.34
2022-08-10T18:28:06.637Z,101982.19
2022-08-10T18:30:52.045Z,101980.59
2022-08-10T18:33:29.668Z,101965.00
2022-08-10T18:36:04.410Z,101979.50
2022-08-10T18:38:38.630Z,101983.94
2022-08-10T18:41:12.343Z,101959.06
2022-08-10T18:44:06.116Z,101973.13
2022-08-10T18:46:47.327Z,101966.69
2022-08-10T18:49:28.436Z,101974.38
2022-08-10T18:52:03.386Z,101975.19
2022-08-10T18:54:43.875Z,101982.84
2022-08-10T18:57:29.062Z,101963.13
2022-08-10T19:00:10.277Z,101971.19
2022-08-10T19:03:31.520Z,101973.59
2022-08-10T19:06:33.347Z,101972.81
2022-08-10T19:09:46.419Z,101980.44
2022-08-10T19:12:40.479Z,101986.47
2022-08-10T19:15:29.182Z,101984.44
2022-08-10T19:18:18.557Z,101970.75
2022-08-10T19:20:55.417Z,101962.69
2022-08-10T19:23:54.404Z,101972.31
2022-08-10T19:26:44.664Z,101962.25
2022-08-10T19:30:10.142Z,101975.13
2022-08-10T19:32:30.567Z,101977.47
2022-08-10T19:35:09.000Z,101971.44
2022-08-10T19:38:00.643Z,101981.47
2022-08-10T19:40:44.749Z,101981.84
2022-08-10T19:43:30.744Z,101978.63
2022-08-10T19:46:32.998Z,101969.78
2022-08-10T19:49:16.232Z,101985.38
2022-08-10T19:51:57.073Z,101974.13
2022-08-10T19:54:35.188Z,101978.91
2022-08-10T19:57:14.149Z,101992.50
2022-08-10T20:00:18.946Z,101986.44
2022-08-10T20:03:15.045Z,101982.47
2022-08-10T20:06:19.495Z,101981.63
2022-08-10T20:08:57.455Z,101978.72
2022-08-10T20:11:48.639Z,101988.34
2022-08-10T20:14:23.825Z,101988.75
2022-08-10T20:17:01.719Z,101993.88
2022-08-10T20:19:53.097Z,101971.66
2022-08-10T20:22:29.919Z,101976.09
2022-08-10T20:25:09.140Z,101985.69
2022-08-10T20:28:06.933Z,101970.34
2022-08-10T20:30:39.258Z,101984.69
2022-08-10T20:33:18.887Z,101978.56
2022-08-10T20:35:53.480Z,101992.16
2022-08-10T20:38:29.729Z,101987.69
2022-08-10T20:41:13.434Z,101990.44
2022-08-10T20:44:01.787Z,101995.97
2022-08-10T20:46:44.748Z,101989.03
2022-08-10T20:49:29.807Z,102009.91
2022-08-10T20:52:02.919Z,102009.41
2022-08-10T20:54:37.832Z,101989.56
2022-08-10T20:57:55.758Z,102004.91
2022-08-10T21:00:43.179Z,102011.63
2022-08-10T21:04:04.116Z,102012.84
2022-08-10T21:07:28.326Z,102009.94
2022-08-10T21:10:07.506Z,102008.22
2022-08-10T21:12:57.309Z,102002.13
2022-08-10T21:15:47.442Z,102004.00
2022-08-10T21:18:34.907Z,102009.13
2022-08-10T21:21:37.628Z,102006.66
2022-08-10T21:24:21.371Z,102016.19
2022-08-10T21:27:08.206Z,102014.59
2022-08-10T21:29:54.768Z,102001.19
2022-08-10T21:32:41.819Z,102008.00
2022-08-10T21:35:36.848Z,102011.47
2022-08-10T21:38:19.598Z,102012.16
2022-08-10T21:41:57.835Z,102021.06
2022-08-10T21:45:08.163Z,102011.75
2022-08-10T21:48:17.320Z,102021.38
2022-08-10T21:51:24.062Z,102016.03
2022-08-10T21:54:22.719Z,102007.91
2022-08-10T21:57:24.281Z,102013.97
2022-08-10T22:03:25.537Z,101997.31
2022-08-10T22:06:28.554Z,102004.25
2022-08-10T22:09:24.176Z,102024.13
2022-08-10T22:12:30.760Z,102018.00
2022-08-10T22:16:03.759Z,102024.03
2022-08-10T22:18:53.875Z,102019.09
2022-08-10T22:22:05.962Z,102022.13
2022-08-10T22:25:17.609Z,102012.56
2022-08-10T22:28:17.635Z,102007.28
2022-08-10T22:31:31.201Z,102006.91
2022-08-10T22:34:43.892Z,102010.66
2022-08-10T22:37:46.325Z,102011.75
2022-08-10T22:40:39.432Z,102007.28
2022-08-10T22:43:35.801Z,102003.38
2022-08-10T22:46:32.759Z,101995.31
2022-08-10T22:49:01.162Z,102002.56
2022-08-10T22:51:54.207Z,102008.88
2022-08-10T22:54:45.403Z,102004.13
2022-08-10T22:57:34.281Z,101988.16
2022-08-10T23:00:16.857Z,101984.19
2022-08-10T23:02:57.561Z,101992.72
2022-08-10T23:05:39.317Z,101998.19
2022-08-10T23:08:29.791Z,102007.66
2022-08-10T23:11:06.636Z,102007.56
2022-08-10T23:13:43.188Z,101976.22
2022-08-10T23:16:38.853Z,102006.78
2022-08-10T23:19:18.917Z,102001.94
2022-08-10T23:22:04.368Z,101995.81
2022-08-10T23:24:40.872Z,102000.97
2022-08-10T23:27:38.001Z,101995.38
2022-08-10T23:30:10.530Z,101991.19
2022-08-10T23:32:50.578Z,101990.28
2022-08-10T23:36:31.313Z,101956.03
2022-08-10T23:38:22.191Z,101991.63
2022-08-10T23:40:57.264Z,101995.22
2022-08-10T23:43:46.657Z,101996.28
2022-08-10T23:46:24.041Z,101988.94
2022-08-10T23:48:57.833Z,101989.41
2022-08-10T23:51:54.583Z,101992.47
2022-08-10T23:54:24.690Z,102002.06
2022-08-10T23:57:02.974Z,101997.97
2022-08-10T23:59:33.479Z,101996.69
